Time;durP1;ratioP1;P1;durP2;ratioP2;P2;SDS_P1;SDS_P2;PMS_P1;PMS_P2;Temp;Humidity;BMP_temperature;BMP_pressure;BME280_temperature;BME280_humidity;BME280_pressure;Samples;Min_cycle;Max_cycle;Signal;HPM_P1;HPM_P2
2020/12/16 00:00:09;;;;;;;45.10;27.17;;;;;;;5.40;66.49;100426.78;5056724;28;20033;-77
2020/12/16 00:02:38;;;;;;;37.33;24.50;;;;;;;5.50;66.26;100445.19;5056653;28;20032;-78
2020/12/16 00:05:06;;;;;;;36.17;24.57;;;;;;;5.68;66.47;100480.41;5056748;28;20358;-77
2020/12/16 00:07:31;;;;;;;41.13;24.27;;;;;;;5.65;66.05;100478.03;5056599;28;20041;-77
2020/12/16 00:09:57;;;;;;;43.43;25.10;;;;;;;5.60;66.37;100481.00;5055668;28;20071;-77
2020/12/16 00:12:23;;;;;;;38.57;23.80;;;;;;;5.47;66.48;100469.03;5038558;28;20029;-77
2020/12/16 00:14:48;;;;;;;39.53;24.60;;;;;;;5.33;66.64;100444.78;5056278;28;20024;-77
2020/12/16 00:17:13;;;;;;;40.53;25.17;;;;;;;5.43;67.20;100479.75;5038819;28;20398;-77
2020/12/16 00:19:41;;;;;;;41.00;25.03;;;;;;;5.14;66.62;100451.56;5057185;28;20025;-81
2020/12/16 00:22:06;;;;;;;40.43;27.00;;;;;;;4.74;67.09;100399.72;5057544;28;20380;-78
2020/12/16 00:24:32;;;;;;;41.43;25.33;;;;;;;4.93;66.82;100438.38;5076077;23;20055;-79
2020/12/16 00:26:57;;;;;;;44.53;26.20;;;;;;;5.03;67.03;100463.69;5078594;28;20114;-78
2020/12/16 00:29:22;;;;;;;45.80;27.90;;;;;;;5.23;67.30;100490.13;5076708;28;20430;-79
2020/12/16 00:31:48;;;;;;;38.40;24.40;;;;;;;5.24;67.33;100497.03;5077338;28;20029;-77
2020/12/16 00:34:13;;;;;;;41.87;25.00;;;;;;;5.25;67.03;100493.47;5076563;28;20060;-77
2020/12/16 00:36:39;;;;;;;34.97;23.13;;;;;;;5.28;66.96;100498.47;5076562;28;20021;-76
2020/12/16 00:39:06;;;;;;;35.57;22.93;;;;;;;5.28;66.76;100498.47;5075354;28;20032;-76
2020/12/16 00:41:32;;;;;;;38.20;22.93;;;;;;;5.26;66.79;100503.81;5075600;28;20032;-77
2020/12/16 00:43:58;;;;;;;36.67;23.27;;;;;;;5.21;66.92;100500.72;5076452;28;20029;-77
2020/12/16 00:46:24;;;;;;;34.83;23.00;;;;;;;5.15;66.95;100502.97;5077401;28;20028;-77
2020/12/16 00:48:49;;;;;;;38.20;23.13;;;;;;;5.05;66.74;100481.91;5078135;28;20100;-77
2020/12/16 00:51:15;;;;;;;34.67;21.33;;;;;;;4.54;66.79;100408.28;5078608;28;20044;-78
2020/12/16 00:53:40;;;;;;;33.20;19.87;;;;;;;4.79;67.03;100444.69;5079195;28;20029;-77
2020/12/16 00:56:05;;;;;;;35.63;21.57;;;;;;;4.79;67.02;100458.59;5068959;23;20061;-77
2020/12/16 00:58:31;;;;;;;28.23;18.23;;;;;;;4.89;67.04;100497.97;5074406;23;20106;-77
2020/12/16 01:00:56;;;;;;;29.67;19.33;;;;;;;4.87;67.14;100499.88;5080653;23;20043;-78
2020/12/16 01:03:23;;;;;;;31.53;19.63;;;;;;;4.87;67.00;100506.88;5083686;28;20038;-79
2020/12/16 01:05:48;;;;;;;34.60;19.57;;;;;;;4.62;67.19;100466.06;5090378;22;20116;-78
2020/12/16 01:08:16;;;;;;;34.93;19.97;;;;;;;4.76;66.79;100486.78;5083280;28;20052;-79
2020/12/16 01:10:41;;;;;;;29.00;18.47;;;;;;;4.89;66.82;100507.59;5083188;28;20352;-78
2020/12/16 01:13:13;;;;;;;34.57;19.07;;;;;;;4.85;66.92;100508.78;5091911;22;20089;-79
2020/12/16 01:15:38;;;;;;;31.23;19.27;;;;;;;4.41;67.25;100439.75;5102555;28;20028;-78
2020/12/16 01:20:29;;;;;;;32.08;20.42;;;;;;;4.77;66.99;100494.50;5085277;22;20056;-78
2020/12/16 01:22:54;;;;;;;30.07;18.00;;;;;;;4.84;67.09;100510.56;5062639;28;20024;-78
2020/12/16 01:25:21;;;;;;;35.00;22.40;;;;;;;4.81;67.07;100510.81;5064762;28;20405;-78
2020/12/16 01:27:59;;;;;;;36.07;20.30;;;;;;;4.53;66.79;100461.56;5093154;23;20105;-77
2020/12/16 01:30:26;;;;;;;27.23;17.43;;;;;;;4.49;67.17;100452.28;5088127;28;20032;-75
2020/12/16 01:32:51;;;;;;;31.33;20.07;;;;;;;4.36;67.23;100421.81;5088232;28;20042;-77
2020/12/16 01:35:17;;;;;;;30.50;20.23;;;;;;;4.73;66.85;100480.00;5102449;28;20109;-76
2020/12/16 01:37:42;;;;;;;35.27;21.27;;;;;;;4.85;66.82;100500.94;5082994;28;20035;-76
2020/12/16 01:40:09;;;;;;;34.43;21.60;;;;;;;4.73;66.73;100461.69;5103751;28;20107;-76
2020/12/16 01:42:36;;;;;;;31.07;20.17;;;;;;;4.65;66.89;100448.38;5101774;28;20031;-77
2020/12/16 01:45:06;;;;;;;32.70;20.63;;;;;;;4.92;67.04;100497.72;5097925;28;20027;-77
2020/12/16 01:47:31;;;;;;;30.63;19.73;;;;;;;4.86;66.98;100495.59;5095545;22;20087;-77
2020/12/16 01:49:57;;;;;;;31.70;21.07;;;;;;;4.93;67.35;100494.16;5080233;28;20024;-77
2020/12/16 01:52:25;;;;;;;34.83;20.30;;;;;;;5.07;67.06;100501.78;5080504;28;20268;-79
2020/12/16 01:54:52;;;;;;;29.87;20.03;;;;;;;4.43;66.88;100382.94;5080746;28;20032;-77
2020/12/16 01:57:19;;;;;;;33.87;20.93;;;;;;;5.04;66.68;100488.94;5080423;28;20347;-78
2020/12/16 01:59:46;;;;;;;33.70;22.83;;;;;;;5.15;66.69;100531.75;5081084;28;20035;-77
2020/12/16 02:02:14;;;;;;;35.10;22.90;;;;;;;5.07;66.87;100486.06;5077831;28;20055;-76
2020/12/16 02:04:43;;;;;;;37.17;24.60;;;;;;;4.79;66.96;100448.13;5082785;28;20036;-75
2020/12/16 02:07:10;;;;;;;34.77;23.27;;;;;;;5.18;67.07;100497.47;5076150;28;20028;-75
2020/12/16 02:09:44;;;;;;;35.20;22.53;;;;;;;5.18;66.78;100498.31;5076017;28;20036;-77
2020/12/16 02:12:18;;;;;;;36.90;21.17;;;;;;;5.22;67.12;100504.19;5076002;28;20101;-77
2020/12/16 02:14:44;;;;;;;38.50;23.40;;;;;;;5.28;66.89;100496.66;5075618;28;20033;-76
2020/12/16 02:17:11;;;;;;;31.67;21.80;;;;;;;5.30;66.84;100499.16;5077751;28;20055;-76
2020/12/16 02:19:42;;;;;;;34.33;21.93;;;;;;;5.25;66.88;100477.75;5079094;28;20032;-77
2020/12/16 02:22:10;;;;;;;36.23;23.73;;;;;;;5.00;66.79;100431.72;5082380;28;20020;-77
2020/12/16 02:24:40;;;;;;;39.43;24.53;;;;;;;5.38;67.01;100497.59;5080825;28;20031;-76
2020/12/16 02:27:06;;;;;;;41.53;25.27;;;;;;;5.42;66.77;100500.81;5078637;28;20025;-76
2020/12/16 02:29:32;;;;;;;42.13;26.87;;;;;;;5.31;66.56;100483.34;5076223;28;20035;-76
2020/12/16 02:31:59;;;;;;;40.53;26.33;;;;;;;5.41;66.70;100502.59;5077649;28;20075;-76
2020/12/16 02:34:24;;;;;;;40.67;26.50;;;;;;;4.91;66.96;100437.66;5080406;28;20174;-76
2020/12/16 02:36:50;;;;;;;41.00;25.47;;;;;;;5.42;67.14;100503.44;5080211;28;20528;-76
2020/12/16 02:39:15;;;;;;;37.67;24.90;;;;;;;5.44;66.75;100514.63;5081231;28;20028;-77
2020/12/16 02:41:42;;;;;;;39.67;24.97;;;;;;;5.25;66.61;100459.44;5076249;22;20045;-77
2020/12/16 02:44:07;;;;;;;37.60;23.90;;;;;;;5.46;66.89;100486.53;5043299;28;20032;-79
2020/12/16 02:46:33;;;;;;;37.27;25.77;;;;;;;5.57;66.76;100509.25;5067533;22;20049;-78
2020/12/16 02:49:02;;;;;;;39.10;25.87;;;;;;;5.53;66.63;100505.19;5041628;28;20120;-77
2020/12/16 02:51:28;;;;;;;36.87;22.40;;;;;;;5.19;66.86;100452.84;5060471;28;20024;-81
2020/12/16 02:53:54;;;;;;;36.50;22.60;;;;;;;5.56;66.91;100511.03;5058841;28;20497;-81
2020/12/16 02:56:19;;;;;;;36.90;22.77;;;;;;;5.43;66.95;100484.97;5058395;28;20037;-78
2020/12/16 02:58:45;;;;;;;27.83;17.57;;;;;;;5.48;66.71;100482.00;5058053;28;20067;-78
2020/12/16 03:01:12;;;;;;;30.80;20.00;;;;;;;5.71;66.90;100509.81;5058189;28;20025;-77
2020/12/16 03:03:38;;;;;;;27.77;18.80;;;;;;;5.48;66.70;100468.06;5058171;28;20041;-79
2020/12/16 03:06:04;;;;;;;30.00;18.87;;;;;;;5.65;66.94;100507.66;5057945;28;20021;-78
2020/12/16 03:08:29;;;;;;;29.67;19.07;;;;;;;5.51;67.03;100489.59;5040415;28;20418;-79
2020/12/16 03:10:55;;;;;;;34.00;20.27;;;;;;;5.66;66.92;100503.25;5058188;28;20091;-78
2020/12/16 03:13:20;;;;;;;31.23;20.30;;;;;;;5.46;67.42;100491.75;5058241;28;20056;-78
2020/12/16 03:15:47;;;;;;;32.57;21.40;;;;;;;5.53;67.13;100489.47;5058505;28;20035;-82
2020/12/16 03:18:13;;;;;;;33.27;22.20;;;;;;;5.70;66.90;100521.25;5040569;28;20199;-77
2020/12/16 03:20:38;;;;;;;35.27;22.50;;;;;;;5.71;67.06;100512.41;5057779;28;20092;-80
2020/12/16 03:23:03;;;;;;;34.60;22.93;;;;;;;5.74;66.83;100514.78;5040123;28;20025;-83
2020/12/16 03:25:29;;;;;;;34.93;24.90;;;;;;;5.71;66.89;100517.66;5058318;28;20056;-76
2020/12/16 03:27:54;;;;;;;35.87;25.47;;;;;;;5.40;67.02;100474.75;5062366;28;20009;-78
2020/12/16 03:30:20;;;;;;;41.50;25.93;;;;;;;4.51;66.92;100330.09;5040768;28;20028;-79
2020/12/16 03:32:45;;;;;;;41.60;26.13;;;;;;;5.62;67.25;100509.72;5057759;28;20053;-77
2020/12/16 03:35:11;;;;;;;52.90;26.33;;;;;;;5.70;66.88;100525.66;5057422;28;20155;-77
2020/12/16 03:37:36;;;;;;;40.00;26.17;;;;;;;5.47;67.15;100497.84;5057242;28;20024;-76
2020/12/16 03:40:02;;;;;;;37.33;25.93;;;;;;;5.46;67.22;100499.63;5057210;28;20060;-79
2020/12/16 03:42:28;;;;;;;37.70;24.63;;;;;;;5.67;67.17;100531.13;5057039;28;20033;-76
2020/12/16 03:44:53;;;;;;;40.87;24.17;;;;;;;5.69;66.98;100539.69;5056011;28;20024;-75
2020/12/16 03:47:18;;;;;;;44.80;25.47;;;;;;;5.59;67.00;100521.25;5056766;28;20102;-78
2020/12/16 03:49:44;;;;;;;40.70;25.87;;;;;;;5.43;66.67;100487.59;5056810;28;20040;-76
2020/12/16 03:52:09;;;;;;;40.33;24.27;;;;;;;5.56;66.99;100512.81;5056766;28;20075;-75
2020/12/16 03:54:35;;;;;;;39.90;24.00;;;;;;;5.61;67.07;100511.50;5039083;28;20029;-75
2020/12/16 03:57:00;;;;;;;40.10;25.97;;;;;;;5.55;66.98;100505.91;5038891;28;20127;-77
2020/12/16 03:59:25;;;;;;;41.33;26.40;;;;;;;5.38;66.86;100481.06;5057117;28;20033;-79
2020/12/16 04:01:51;;;;;;;39.20;26.57;;;;;;;5.71;66.87;100528.13;5056532;28;20044;-76
2020/12/16 04:04:17;;;;;;;39.70;26.47;;;;;;;5.71;66.99;100538.63;5056642;28;20017;-76
2020/12/16 04:06:42;;;;;;;41.77;27.43;;;;;;;5.24;66.76;100452.53;5056518;28;20040;-76
2020/12/16 04:09:07;;;;;;;39.33;25.30;;;;;;;5.05;66.80;100421.72;5056624;28;20044;-78
2020/12/16 04:11:33;;;;;;;42.67;26.73;;;;;;;5.79;66.95;100545.88;5056601;28;20033;-77
2020/12/16 04:13:58;;;;;;;38.97;26.37;;;;;;;5.71;66.92;100537.78;5056346;28;20032;-77
2020/12/16 04:16:24;;;;;;;39.97;25.73;;;;;;;5.53;66.87;100521.75;5038911;28;20050;-77
2020/12/16 04:18:50;;;;;;;35.77;24.73;;;;;;;5.57;67.12;100515.31;5056518;28;20100;-77
2020/12/16 04:21:18;;;;;;;42.93;25.37;;;;;;;5.50;66.99;100522.00;5056694;28;20424;-77
2020/12/16 04:23:43;;;;;;;33.80;24.13;;;;;;;5.73;67.27;100543.75;5038599;28;20107;-82
2020/12/16 04:26:09;;;;;;;36.50;23.33;;;;;;;5.58;67.20;100519.59;5056594;28;20483;-78
2020/12/16 04:28:36;;;;;;;35.43;23.63;;;;;;;5.22;66.77;100478.81;5056395;28;20038;-78
2020/12/16 04:31:03;;;;;;;36.80;25.43;;;;;;;5.71;66.94;100559.59;5056324;28;20112;-78
2020/12/16 04:33:29;;;;;;;41.83;25.60;;;;;;;5.04;67.13;100467.97;5069020;28;20320;-80
2020/12/16 04:35:54;;;;;;;37.27;23.83;;;;;;;5.67;67.35;100562.56;5057213;28;20091;-78
2020/12/16 04:38:20;;;;;;;37.97;24.13;;;;;;;5.66;67.06;100571.38;5056512;28;20320;-79
2020/12/16 04:40:45;;;;;;;35.50;24.03;;;;;;;5.57;66.85;100540.69;5056143;28;20083;-82
2020/12/16 04:43:17;;;;;;;33.47;23.10;;;;;;;5.22;66.77;100480.63;5056332;28;20557;-84
2020/12/16 04:45:43;;;;;;;32.20;22.05;;;;;;;5.46;67.11;100528.44;5056027;28;20042;-80
2020/12/16 04:48:09;;;;;;;29.47;21.10;;;;;;;5.64;66.72;100547.94;5056087;28;20032;-78
2020/12/16 04:50:36;;;;;;;30.87;19.43;;;;;;;5.67;66.91;100549.47;5055928;28;20021;-80
2020/12/16 04:53:05;;;;;;;30.33;20.03;;;;;;;5.40;66.52;100518.44;5055908;28;20044;-79
2020/12/16 04:55:31;;;;;;;32.43;22.97;;;;;;;5.65;66.87;100574.97;5055715;28;20025;-78
2020/12/16 04:57:58;;;;;;;36.27;21.37;;;;;;;5.74;66.68;100576.84;5055306;28;20037;-78
2020/12/16 05:00:24;;;;;;;39.10;22.77;;;;;;;5.11;67.19;100482.25;5055614;28;20025;-80
2020/12/16 05:02:58;;;;;;;31.30;22.50;;;;;;;5.61;66.44;100561.25;5055509;28;20036;-85
2020/12/16 05:05:24;;;;;;;29.03;20.70;;;;;;;5.32;66.92;100515.59;5055711;28;20029;-83
2020/12/16 05:07:50;;;;;;;33.07;21.73;;;;;;;5.65;66.68;100578.41;5055619;28;20049;-78
2020/12/16 05:10:33;;;;;;;31.00;19.20;;;;;;;5.36;66.57;100530.09;5055628;28;20029;-80
2020/12/16 05:13:14;;;;;;;23.93;17.17;;;;;;;5.73;66.79;100588.28;5037911;28;20120;-82
2020/12/16 05:15:45;;;;;;;26.38;18.52;;;;;;;5.72;66.99;100586.63;5055632;28;20035;-78
2020/12/16 05:18:17;;;;;;;30.33;20.63;;;;;;;5.73;66.75;100585.66;5037567;28;20033;-82
2020/12/16 05:21:02;;;;;;;;;;;;;;;5.64;66.96;100592.47;5055872;28;20048;-79
2020/12/16 05:23:30;;;;;;;27.60;18.77;;;;;;;5.17;67.05;100514.97;5054867;28;19909;-77
2020/12/16 05:26:10;;;;;;;35.27;21.70;;;;;;;5.52;66.97;100569.84;5055193;28;20036;-79
2020/12/16 05:28:37;;;;;;;30.70;20.90;;;;;;;5.52;66.65;100580.34;5055501;28;20021;-79
2020/12/16 05:31:07;;;;;;;32.57;21.97;;;;;;;5.67;66.68;100594.00;5055165;28;20036;-76
2020/12/16 05:33:42;;;;;;;33.97;22.83;;;;;;;5.66;66.67;100592.34;5055051;28;20025;-76
2020/12/16 05:36:09;;;;;;;38.13;23.07;;;;;;;5.64;66.60;100584.59;5055085;28;20420;-77
2020/12/16 05:38:53;;;;;;;36.37;22.50;;;;;;;5.62;66.55;100597.00;5064767;28;20012;-76
2020/12/16 05:41:29;;;;;;;31.07;20.73;;;;;;;5.66;66.92;100608.06;5056217;28;20118;-76
2020/12/16 05:44:18;;;;;;;33.83;20.93;;;;;;;5.31;66.51;100558.44;5037590;28;20111;-79
2020/12/16 05:46:44;;;;;;;35.13;22.30;;;;;;;5.35;67.07;100567.72;5055166;28;20059;-77
2020/12/16 05:49:22;;;;;;;33.70;20.80;;;;;;;5.80;66.52;100622.69;5055239;28;20062;-79
2020/12/16 05:52:05;;;;;;;33.27;21.47;;;;;;;5.80;66.63;100620.06;5037379;28;20033;-78
2020/12/16 05:54:34;;;;;;;29.63;19.90;;;;;;;5.78;66.45;100627.22;5055172;28;20032;-78
2020/12/16 05:57:29;;;;;;;33.20;20.57;;;;;;;5.74;66.54;100621.41;5054645;28;20021;-86
2020/12/16 06:00:09;;;;;;;30.37;19.83;;;;;;;5.75;66.31;100634.38;5055522;28;20041;-77
2020/12/16 06:02:44;;;;;;;29.03;20.27;;;;;;;5.67;66.93;100639.38;5055293;28;20058;-83
2020/12/16 06:05:11;;;;;;;31.37;21.33;;;;;;;5.78;66.73;100628.06;5037698;28;20028;-87
2020/12/16 06:07:48;;;;;;;34.63;23.40;;;;;;;5.76;66.65;100629.97;5047226;23;20041;-86
2020/12/16 06:10:14;;;;;;;32.80;20.77;;;;;;;5.25;66.74;100558.91;5057712;28;20396;-86
2020/12/16 06:12:42;;;;;;;31.00;21.30;;;;;;;5.54;66.83;100596.75;5075081;28;20036;-86
2020/12/16 06:15:09;;;;;;;32.80;22.30;;;;;;;5.05;66.58;100542.94;5074702;28;20367;-87
2020/12/16 06:17:45;;;;;;;35.97;23.73;;;;;;;5.11;66.99;100539.00;5074659;28;20032;-86
2020/12/16 06:20:28;;;;;;;34.83;24.90;;;;;;;5.62;66.46;100604.84;5057059;28;20044;-85
2020/12/16 06:23:00;;;;;;;45.83;30.30;;;;;;;4.96;66.66;100493.91;5075223;28;20050;-87
2020/12/16 06:25:26;;;;;;;44.97;29.07;;;;;;;5.67;66.42;100614.97;5057064;28;20024;-85
2020/12/16 06:27:51;;;;;;;40.53;27.93;;;;;;;5.37;66.67;100571.88;5074686;28;20089;-81
2020/12/16 06:30:26;;;;;;;44.63;28.20;;;;;;;5.53;66.78;100592.47;5057212;28;20078;-77
2020/12/16 06:33:18;;;;;;;46.37;27.90;;;;;;;5.59;66.61;100602.47;5074811;28;20074;-85
2020/12/16 06:35:46;;;;;;;45.40;30.13;;;;;;;5.86;66.64;100653.66;5074617;28;20033;-78
2020/12/16 06:38:20;;;;;;;40.30;27.27;;;;;;;5.98;66.84;100663.25;5074410;28;20024;-77
2020/12/16 06:40:51;;;;;;;41.80;26.83;;;;;;;5.91;66.89;100652.38;5073336;28;20350;-76
2020/12/16 06:43:31;;;;;;;40.42;27.02;;;;;;;5.99;67.16;100670.16;5075945;28;20039;-76
2020/12/16 06:46:01;;;;;;;44.20;26.87;;;;;;;6.02;67.08;100667.28;5075376;28;20032;-79
2020/12/16 06:48:39;;;;;;;52.33;30.77;;;;;;;6.00;66.72;100659.53;5070082;28;20024;-77
2020/12/16 06:51:13;;;;;;;55.83;33.72;;;;;;;6.02;67.31;100673.38;5054216;28;20499;-76
2020/12/16 06:53:39;;;;;;;63.40;35.93;;;;;;;6.08;67.16;100666.81;5067665;28;20077;-80
2020/12/16 06:56:05;;;;;;;57.83;33.00;;;;;;;5.73;66.98;100598.75;5074110;28;20103;-77
2020/12/16 06:58:39;;;;;;;59.43;33.73;;;;;;;6.15;67.00;100675.84;5036288;28;20021;-87
2020/12/16 07:01:16;;;;;;;63.97;34.97;;;;;;;5.84;66.79;100624.13;5035967;28;20075;-77
2020/12/16 07:03:42;;;;;;;72.03;39.03;;;;;;;5.99;66.64;100639.53;5053918;28;20021;-78
2020/12/16 07:06:11;;;;;;;68.60;38.40;;;;;;;6.28;66.98;100673.91;5037560;28;20037;-80
2020/12/16 07:08:38;;;;;;;67.27;40.57;;;;;;;6.16;66.48;100653.09;5033645;28;20037;-82
2020/12/16 07:11:05;;;;;;;63.53;36.97;;;;;;;6.31;67.00;100686.78;5048244;28;20029;-80
2020/12/16 07:13:35;;;;;;;56.60;31.15;;;;;;;5.52;66.91;100548.06;5049812;28;20324;-78
2020/12/16 07:16:13;;;;;;;56.03;31.73;;;;;;;5.88;66.86;100609.81;5042577;28;20075;-81
2020/12/16 07:18:38;;;;;;;59.20;33.10;;;;;;;6.29;66.48;100686.06;5034476;28;20116;-85
2020/12/16 07:21:16;;;;;;;63.83;33.95;;;;;;;6.32;66.49;100679.75;5054238;28;20128;-80
2020/12/16 07:24:06;;;;;;;55.73;34.63;;;;;;;6.33;66.31;100684.88;5038868;28;20040;-77
2020/12/16 07:26:35;;;;;;;53.00;34.50;;;;;;;6.19;66.49;100650.22;5043158;28;20037;-84
2020/12/16 07:29:26;;;;;;;66.70;38.20;;;;;;;6.36;66.61;100689.03;5055825;28;20028;-77
2020/12/16 07:32:13;;;;;;;66.87;37.57;;;;;;;6.38;66.39;100679.25;5038373;28;20072;-81
2020/12/16 07:34:47;;;;;;;65.03;37.90;;;;;;;6.45;66.25;100671.72;5056920;28;20090;-79
2020/12/16 07:37:14;;;;;;;65.20;38.00;;;;;;;5.92;66.24;100587.69;5034703;28;20044;-77
2020/12/16 07:39:48;;;;;;;66.17;39.20;;;;;;;6.16;66.44;100619.00;5036459;28;20036;-81
2020/12/16 07:42:25;;;;;;;64.23;38.40;;;;;;;6.46;66.14;100662.91;5032073;28;20424;-82
2020/12/16 07:44:51;;;;;;;62.92;39.53;;;;;;;6.64;66.46;100685.00;5038662;28;20048;-82
2020/12/16 07:47:18;;;;;;;63.78;39.42;;;;;;;6.69;66.83;100694.22;5056706;28;20420;-83
2020/12/16 07:49:44;;;;;;;66.47;39.60;;;;;;;6.70;66.84;100679.28;5056846;28;20028;-79
2020/12/16 07:52:10;;;;;;;64.37;39.67;;;;;;;6.79;67.00;100694.28;5056370;28;20112;-85
2020/12/16 07:54:36;;;;;;;65.10;42.70;;;;;;;6.85;66.65;100712.16;5056539;28;20134;-81
2020/12/16 07:57:02;;;;;;;70.53;43.30;;;;;;;6.81;66.53;100694.16;5056470;28;20329;-86
2020/12/16 07:59:30;;;;;;;72.17;46.77;;;;;;;6.93;66.55;100701.03;5056418;28;20038;-85
2020/12/16 08:02:11;;;;;;;77.53;46.97;;;;;;;6.94;66.11;100700.91;5036784;28;20033;-84
2020/12/16 08:04:37;;;;;;;69.68;44.33;;;;;;;6.94;66.53;100703.53;5053493;28;20033;-87
2020/12/16 08:07:11;;;;;;;79.53;49.33;;;;;;;6.98;66.40;100706.75;5039695;28;20040;-90
2020/12/16 08:09:36;;;;;;;69.17;47.13;;;;;;;6.62;66.72;100644.94;5066388;28;20111;-86
2020/12/16 08:12:02;;;;;;;75.63;49.88;;;;;;;7.03;66.42;100709.81;5055966;28;20108;-77
2020/12/16 08:14:27;;;;;;;75.88;48.50;;;;;;;6.71;66.19;100649.47;5037909;28;20443;-85
2020/12/16 08:16:53;;;;;;;71.00;46.55;;;;;;;6.51;66.05;100626.63;5056094;28;20035;-80
2020/12/16 08:19:18;;;;;;;68.88;45.40;;;;;;;6.75;66.35;100663.16;5038444;28;20021;-83
2020/12/16 08:21:43;;;;;;;65.13;43.50;;;;;;;6.60;66.41;100654.72;5049190;28;20026;-78
2020/12/16 08:24:09;;;;;;;63.03;39.07;;;;;;;7.10;66.25;100710.13;5028436;28;20025;-81
2020/12/16 08:26:34;;;;;;;49.73;34.13;;;;;;;6.68;65.79;100639.19;5043424;28;20025;-84
2020/12/16 08:29:09;;;;;;;52.75;35.28;;;;;;;6.92;66.10;100692.31;5054214;28;20111;-87
2020/12/16 08:31:34;;;;;;;44.83;30.48;;;;;;;6.92;66.57;100681.81;5054470;28;20033;-85
2020/12/16 08:34:02;;;;;;;46.73;30.07;;;;;;;7.07;65.64;100705.16;5055624;28;20032;-84
2020/12/16 08:36:27;;;;;;;38.47;26.17;;;;;;;6.78;65.62;100649.78;5055741;28;20021;-86
2020/12/16 08:38:53;;;;;;;41.57;27.13;;;;;;;6.92;65.84;100670.47;5037777;28;20036;-75
2020/12/16 08:41:28;;;;;;;38.35;24.33;;;;;;;7.10;66.17;100700.47;5053138;28;20021;-86
2020/12/16 08:43:55;;;;;;;36.10;24.45;;;;;;;6.61;65.90;100614.41;5035676;28;20033;-88
2020/12/16 08:46:25;;;;;;;35.58;23.08;;;;;;;7.15;65.84;100695.66;5043837;28;20166;-84
2020/12/16 08:48:59;;;;;;;38.03;23.63;;;;;;;7.26;66.34;100703.47;5053395;28;20017;-79
2020/12/16 08:51:38;;;;;;;34.85;22.13;;;;;;;7.27;65.56;100699.91;5037768;28;20024;-79
2020/12/16 08:54:06;;;;;;;32.72;21.70;;;;;;;6.65;65.84;100606.16;5037884;28;20040;-84
2020/12/16 08:56:32;;;;;;;34.42;21.15;;;;;;;7.04;65.82;100650.25;5037498;28;20028;-79
2020/12/16 08:59:04;;;;;;;32.78;22.73;;;;;;;7.35;65.46;100701.88;5054989;28;20024;-80
2020/12/16 09:01:30;;;;;;;34.92;23.67;;;;;;;7.35;65.42;100701.88;5037449;28;20018;-78
2020/12/16 09:03:55;;;;;;;39.15;25.23;;;;;;;6.43;65.66;100563.47;5037459;28;20017;-82
2020/12/16 09:06:21;;;;;;;45.92;29.80;;;;;;;7.34;66.07;100700.22;5055368;28;20324;-84
2020/12/16 09:08:47;;;;;;;36.00;24.00;;;;;;;7.36;66.04;100692.19;5037337;28;20376;-88
2020/12/16 09:11:16;;;;;;;34.95;22.65;;;;;;;6.91;65.87;100616.31;5037104;28;20075;-79
2020/12/16 09:13:41;;;;;;;31.87;21.03;;;;;;;7.12;65.19;100653.06;5054460;28;20036;-82
2020/12/16 09:16:06;;;;;;;30.17;20.23;;;;;;;7.44;66.00;100692.41;5054564;28;20315;-85
2020/12/16 09:18:32;;;;;;;28.30;21.08;;;;;;;7.34;65.09;100671.31;5052447;28;20029;-85
2020/12/16 09:20:58;;;;;;;31.80;21.63;;;;;;;7.34;65.54;100679.19;5049387;28;20487;-81
2020/12/16 09:23:26;;;;;;;28.15;18.63;;;;;;;7.22;65.51;100651.34;5035650;28;20390;-88
2020/12/16 09:25:55;;;;;;;27.38;18.85;;;;;;;7.51;65.68;100690.94;5035937;28;20036;-76
2020/12/16 09:28:21;;;;;;;28.50;17.15;;;;;;;7.49;65.69;100691.06;5054392;28;20428;-91
2020/12/16 09:30:46;;;;;;;28.88;18.70;;;;;;;6.35;65.42;100509.00;5054252;28;20028;-88
2020/12/16 09:33:14;;;;;;;28.10;18.25;;;;;;;7.51;65.89;100683.06;5036938;28;20064;-85
2020/12/16 09:35:41;;;;;;;26.90;18.83;;;;;;;7.50;65.71;100691.91;5054105;28;20070;-86
2020/12/16 09:38:32;;;;;;;28.70;19.77;;;;;;;7.37;65.66;100667.59;5051453;28;20435;-88
2020/12/16 09:40:59;;;;;;;32.40;21.90;;;;;;;7.47;66.18;100693.00;5024750;28;20056;-86
2020/12/16 09:43:39;;;;;;;30.73;20.25;;;;;;;7.50;65.68;100676.13;5034972;28;20025;-85
2020/12/16 09:46:14;;;;;;;30.42;21.48;;;;;;;7.36;65.26;100645.75;5034566;28;20119;-88
2020/12/16 09:48:40;;;;;;;31.17;21.60;;;;;;;7.16;65.45;100600.16;5044780;28;20083;-87
2020/12/16 09:51:14;;;;;;;30.75;19.15;;;;;;;7.58;65.62;100652.66;5035988;28;20110;-87
2020/12/16 09:53:41;;;;;;;30.75;20.10;;;;;;;7.62;65.49;100661.94;5053932;28;20033;-89
2020/12/16 09:56:06;;;;;;;28.35;18.48;;;;;;;6.65;65.57;100535.31;5053290;28;20021;-86
2020/12/16 09:58:37;;;;;;;30.17;20.23;;;;;;;7.46;65.24;100643.19;5054729;28;20032;-87
2020/12/16 10:01:02;;;;;;;25.05;16.30;;;;;;;7.27;65.15;100605.31;5054630;28;20021;-88
2020/12/16 10:03:28;;;;;;;24.08;17.25;;;;;;;7.14;65.31;100588.13;5053792;28;20104;-85
2020/12/16 10:05:53;;;;;;;26.85;18.48;;;;;;;7.34;65.65;100619.59;5035395;28;20083;-81
2020/12/16 10:08:19;;;;;;;26.60;17.60;;;;;;;7.73;65.15;100661.84;5050193;28;20055;-86
2020/12/16 10:10:44;;;;;;;24.25;16.83;;;;;;;7.79;65.73;100657.84;5032677;28;20028;-77
2020/12/16 10:13:11;;;;;;;21.58;15.75;;;;;;;7.47;65.20;100610.69;5041879;28;20026;-80
2020/12/16 10:15:36;;;;;;;23.70;16.08;;;;;;;7.27;64.77;100573.81;5030599;28;20454;-84
2020/12/16 10:18:02;;;;;;;21.92;15.20;;;;;;;7.09;64.81;100538.63;5051908;28;20031;-87
2020/12/16 10:20:27;;;;;;;22.60;14.07;;;;;;;7.57;64.66;100632.59;5049755;28;20017;-80
2020/12/16 10:22:53;;;;;;;24.83;16.05;;;;;;;7.76;65.10;100656.31;5034226;28;20515;-84
2020/12/16 10:25:18;;;;;;;30.20;19.70;;;;;;;7.23;65.20;100558.44;5042748;28;20047;-85
2020/12/16 10:27:44;;;;;;;25.23;16.38;;;;;;;7.62;65.11;100635.66;5045332;28;20075;-86
2020/12/16 10:30:10;;;;;;;24.58;16.77;;;;;;;7.35;65.18;100578.41;5050882;28;20100;-84
2020/12/16 10:32:36;;;;;;;28.67;17.00;;;;;;;7.10;64.96;100527.16;5036292;28;20017;-84
2020/12/16 10:35:03;;;;;;;28.65;17.63;;;;;;;7.59;65.64;100610.47;5053966;28;20032;-77
2020/12/16 10:37:28;;;;;;;25.42;15.93;;;;;;;7.00;65.22;100542.84;5053798;28;20104;-81
2020/12/16 10:39:54;;;;;;;20.63;13.63;;;;;;;7.79;65.13;100631.56;5042065;28;20115;-85
2020/12/16 10:42:22;;;;;;;23.90;15.18;;;;;;;7.70;65.06;100621.84;5049704;28;20338;-87
2020/12/16 10:44:48;;;;;;;23.90;15.25;;;;;;;7.80;65.55;100634.06;5052333;28;20355;-85
2020/12/16 10:47:14;;;;;;;24.95;15.82;;;;;;;7.64;64.86;100613.53;5051914;28;20033;-84
2020/12/16 10:49:39;;;;;;;27.42;18.40;;;;;;;7.25;65.20;100546.00;5033996;28;20029;-83
2020/12/16 10:52:10;;;;;;;26.27;16.30;;;;;;;6.80;65.32;100470.22;5052441;28;20024;-81
2020/12/16 10:54:36;;;;;;;25.67;18.25;;;;;;;7.16;65.43;100523.16;5053286;28;20416;-82
2020/12/16 10:57:02;;;;;;;27.60;17.17;;;;;;;7.64;64.79;100587.25;5054676;28;20092;-80
2020/12/16 10:59:29;;;;;;;24.52;17.23;;;;;;;6.97;64.85;100487.97;5040455;28;20049;-83
2020/12/16 11:01:58;;;;;;;22.17;14.90;;;;;;;7.80;64.70;100617.47;5039828;28;20108;-82
2020/12/16 11:04:24;;;;;;;21.55;15.45;;;;;;;7.70;64.96;100598.19;5058114;28;20099;-85
2020/12/16 11:06:50;;;;;;;25.85;16.60;;;;;;;6.45;65.45;100397.09;5041534;28;20074;-90
2020/12/16 11:09:18;;;;;;;27.77;17.17;;;;;;;7.71;65.53;100589.34;5036067;28;20040;-77
2020/12/16 11:11:47;;;;;;;26.15;15.98;;;;;;;7.79;64.88;100603.47;5036281;28;20095;-77
2020/12/16 11:14:13;;;;;;;25.98;16.27;;;;;;;7.59;64.72;100573.69;5039829;28;20512;-76
2020/12/16 11:16:40;;;;;;;25.88;17.27;;;;;;;7.32;65.10;100524.31;5056976;28;20020;-86
2020/12/16 11:19:07;;;;;;;25.83;16.95;;;;;;;7.62;65.21;100562.91;5055917;28;20057;-76
2020/12/16 11:21:41;;;;;;;24.48;15.63;;;;;;;7.73;65.32;100587.41;5038700;28;20028;-78
2020/12/16 11:24:07;;;;;;;29.58;16.15;;;;;;;7.79;65.18;100605.28;5039622;28;20339;-81